createdAt,value
2022-12-03T00:01:02.120Z,-1.29
2022-12-03T00:03:30.704Z,-1.33
2022-12-03T00:06:00.694Z,-1.35
2022-12-03T00:08:29.179Z,-1.30
2022-12-03T00:10:57.700Z,-1.36
2022-12-03T00:13:26.226Z,-1.36
2022-12-03T00:15:54.790Z,-1.30
2022-12-03T00:18:23.576Z,-1.29
2022-12-03T00:20:52.047Z,-1.22
2022-12-03T00:23:21.914Z,-1.25
2022-12-03T00:25:50.730Z,-1.28
2022-12-03T00:28:19.199Z,-1.25
2022-12-03T00:30:47.696Z,-1.23
2022-12-03T00:33:16.215Z,-1.24
2022-12-03T00:35:44.690Z,-1.23
2022-12-03T00:38:13.344Z,-1.20
2022-12-03T00:40:43.303Z,-1.21
2022-12-03T00:43:11.791Z,-1.28
2022-12-03T00:45:40.382Z,-1.27
2022-12-03T00:48:08.903Z,-1.25
2022-12-03T00:50:37.483Z,-1.33
2022-12-03T00:53:05.951Z,-1.33
2022-12-03T00:55:34.426Z,-1.33
2022-12-03T00:58:04.318Z,-1.28
2022-12-03T01:00:32.798Z,-1.30
2022-12-03T01:03:01.674Z,-1.32
2022-12-03T01:05:30.171Z,-1.33
2022-12-03T01:07:58.689Z,-1.35
2022-12-03T01:10:27.422Z,-1.32
2022-12-03T01:12:55.948Z,-1.30
2022-12-03T01:15:25.906Z,-1.30
2022-12-03T01:17:55.099Z,-1.32
2022-12-03T01:20:23.607Z,-1.32
2022-12-03T01:22:52.135Z,-1.40
2022-12-03T01:25:20.652Z,-1.41
2022-12-03T01:27:49.228Z,-1.42
2022-12-03T01:30:17.795Z,-1.43
2022-12-03T01:32:46.637Z,-1.43
2022-12-03T01:35:15.242Z,-1.44
2022-12-03T01:37:43.710Z,-1.46
2022-12-03T01:40:16.949Z,-1.50
2022-12-03T01:42:45.566Z,-1.45
2022-12-03T01:45:22.716Z,-1.44
2022-12-03T01:47:52.799Z,-1.41
2022-12-03T01:50:28.032Z,-1.44
2022-12-03T01:52:59.554Z,-1.46
2022-12-03T01:55:28.309Z,-1.46
2022-12-03T01:58:00.069Z,-1.44
2022-12-03T02:00:29.786Z,-1.44
2022-12-03T02:03:02.417Z,-1.49
2022-12-03T02:05:32.793Z,-1.50
2022-12-03T02:08:02.037Z,-1.46
2022-12-03T02:10:34.951Z,-1.44
2022-12-03T02:13:06.298Z,-1.46
2022-12-03T02:15:35.599Z,-1.48
2022-12-03T02:18:05.772Z,-1.45
2022-12-03T02:20:40.454Z,-1.48
2022-12-03T02:23:14.746Z,-1.44
2022-12-03T02:25:44.784Z,-1.43
2022-12-03T02:28:13.324Z,-1.41
2022-12-03T02:30:41.802Z,-1.41
2022-12-03T02:33:10.329Z,-1.39
2022-12-03T02:35:40.206Z,-1.38
2022-12-03T02:38:13.967Z,-1.41
2022-12-03T02:40:45.262Z,-1.37
2022-12-03T02:43:16.688Z,-1.40
2022-12-03T02:45:48.687Z,-1.44
2022-12-03T02:48:20.900Z,-1.37
2022-12-03T02:50:52.759Z,-1.42
2022-12-03T02:53:25.030Z,-1.47
2022-12-03T02:55:57.042Z,-1.52
2022-12-03T02:58:27.344Z,-1.54
2022-12-03T03:00:56.727Z,-1.54
2022-12-03T03:03:28.514Z,-1.56
2022-12-03T03:05:57.866Z,-1.50
2022-12-03T03:08:27.023Z,-1.47
2022-12-03T03:10:57.916Z,-1.48
2022-12-03T03:13:26.754Z,-1.52
2022-12-03T03:15:55.424Z,-1.51
2022-12-03T03:18:24.222Z,-1.52
2022-12-03T03:20:52.776Z,-1.52
2022-12-03T03:23:23.105Z,-1.48
2022-12-03T03:25:58.091Z,-1.49
2022-12-03T03:28:27.568Z,-1.51
2022-12-03T03:30:56.780Z,-1.49
2022-12-03T03:33:25.825Z,-1.48
2022-12-03T03:35:54.919Z,-1.43
2022-12-03T03:38:24.979Z,-1.44
2022-12-03T03:40:54.658Z,-1.43
2022-12-03T03:43:26.240Z,-1.38
2022-12-03T03:45:55.665Z,-1.43
2022-12-03T03:48:24.348Z,-1.40
2022-12-03T03:50:53.428Z,-1.40
2022-12-03T03:53:23.102Z,-1.40
2022-12-03T03:55:52.388Z,-1.39
2022-12-03T03:58:21.034Z,-1.34
2022-12-03T04:00:51.018Z,-1.34
2022-12-03T04:03:19.569Z,-1.34
2022-12-03T04:05:51.036Z,-1.38
2022-12-03T04:08:19.618Z,-1.39
2022-12-03T04:11:05.608Z,-1.41
2022-12-03T04:13:34.143Z,-1.45
2022-12-03T04:16:04.084Z,-1.45
2022-12-03T04:18:46.474Z,-1.50
2022-12-03T04:21:34.723Z,-1.40
2022-12-03T04:24:03.813Z,-1.39
2022-12-03T04:26:50.470Z,-1.38
2022-12-03T04:29:19.223Z,-1.40
2022-12-03T04:32:06.754Z,-1.47
2022-12-03T04:34:57.692Z,-1.43
2022-12-03T04:37:26.240Z,-1.44
2022-12-03T04:39:54.796Z,-1.43
2022-12-03T04:42:23.383Z,-1.43
2022-12-03T04:44:52.395Z,-1.41
2022-12-03T04:47:23.112Z,-1.39
2022-12-03T04:49:52.858Z,-1.38
2022-12-03T04:52:22.180Z,-1.37
2022-12-03T04:54:50.717Z,-1.41
2022-12-03T04:57:19.223Z,-1.42
2022-12-03T04:59:47.789Z,-1.48
2022-12-03T05:02:16.383Z,-1.53
2022-12-03T05:04:46.391Z,-1.56
2022-12-03T05:07:14.907Z,-1.56
2022-12-03T05:09:43.894Z,-1.53
2022-12-03T05:12:12.515Z,-1.50
2022-12-03T05:14:41.012Z,-1.50
2022-12-03T05:17:09.564Z,-1.52
2022-12-03T05:19:55.801Z,-1.51
2022-12-03T05:22:25.712Z,-1.50
2022-12-03T05:24:54.446Z,-1.52
2022-12-03T05:27:24.094Z,-1.49
2022-12-03T05:29:52.973Z,-1.50
2022-12-03T05:32:21.847Z,-1.53
2022-12-03T05:34:50.429Z,-1.53
2022-12-03T05:37:18.977Z,-1.55
2022-12-03T05:39:48.845Z,-1.55
2022-12-03T05:42:34.898Z,-1.52
2022-12-03T05:45:03.401Z,-1.53
2022-12-03T05:47:31.918Z,-1.58
2022-12-03T05:50:00.507Z,-1.59
2022-12-03T05:52:29.016Z,-1.63
2022-12-03T05:54:58.875Z,-1.65
2022-12-03T05:57:27.388Z,-1.62
2022-12-03T05:59:55.891Z,-1.60
2022-12-03T06:02:24.643Z,-1.63
2022-12-03T06:04:53.649Z,-1.68
2022-12-03T06:07:22.384Z,-1.72
2022-12-03T06:09:51.088Z,-1.71
2022-12-03T06:12:20.940Z,-1.78
2022-12-03T06:14:49.440Z,-1.83
2022-12-03T06:17:18.038Z,-1.90
2022-12-03T06:19:46.503Z,-1.90
2022-12-03T06:22:15.019Z,-1.92
2022-12-03T06:24:43.729Z,-1.90
2022-12-03T06:27:12.296Z,-1.90
2022-12-03T06:29:42.172Z,-1.91
2022-12-03T06:32:11.031Z,-1.89
2022-12-03T06:34:40.080Z,-1.87
2022-12-03T06:37:08.558Z,-1.88
2022-12-03T06:39:37.072Z,-1.90
2022-12-03T06:42:05.691Z,-1.90
2022-12-03T06:44:34.195Z,-1.94
2022-12-03T06:47:04.140Z,-1.96
2022-12-03T06:49:32.696Z,-1.97
2022-12-03T06:52:01.366Z,-1.96
2022-12-03T06:54:29.878Z,-1.94
2022-12-03T06:56:58.365Z,-1.90
2022-12-03T06:59:27.019Z,-1.90
2022-12-03T07:01:55.530Z,-1.90
2022-12-03T07:04:25.455Z,-1.89
2022-12-03T07:06:53.983Z,-1.91
2022-12-03T07:09:22.481Z,-1.87
2022-12-03T07:11:50.997Z,-1.89
2022-12-03T07:14:19.542Z,-1.92
2022-12-03T07:16:48.155Z,-1.92
2022-12-03T07:19:17.015Z,-1.90
2022-12-03T07:21:46.881Z,-1.94
2022-12-03T07:24:15.432Z,-1.97
2022-12-03T07:26:43.992Z,-2.02
2022-12-03T07:29:13.059Z,-2.05
2022-12-03T07:31:41.689Z,-2.02
2022-12-03T07:34:10.274Z,-2.02
2022-12-03T07:36:38.797Z,-2.06
2022-12-03T07:39:08.708Z,-2.03
2022-12-03T07:41:37.204Z,-2.08
2022-12-03T07:44:12.408Z,-2.09
2022-12-03T07:46:42.996Z,-2.13
2022-12-03T07:49:12.462Z,-2.16
2022-12-03T07:51:41.124Z,-2.16
2022-12-03T07:54:11.015Z,-2.13
2022-12-03T07:56:39.569Z,-2.11
2022-12-03T07:59:08.502Z,-2.10
2022-12-03T08:01:37.063Z,-2.12
2022-12-03T08:04:06.028Z,-2.07
2022-12-03T08:06:34.498Z,-2.03
2022-12-03T08:09:02.984Z,-2.01
2022-12-03T08:11:34.331Z,-2.04
2022-12-03T08:14:08.592Z,-2.07
2022-12-03T08:16:40.433Z,-2.05
2022-12-03T08:19:11.163Z,-2.09
2022-12-03T08:21:40.131Z,-2.04
2022-12-03T08:24:15.821Z,-2.07
2022-12-03T08:26:46.996Z,-2.08
2022-12-03T08:29:17.805Z,-2.08
2022-12-03T08:31:49.284Z,-2.09
2022-12-03T08:34:20.090Z,-2.08
2022-12-03T08:36:50.552Z,-2.11
2022-12-03T08:39:30.836Z,-2.12
2022-12-03T08:42:28.002Z,-2.11
2022-12-03T08:44:57.030Z,-2.07
2022-12-03T08:47:25.900Z,-2.03
2022-12-03T08:49:58.300Z,-1.97
2022-12-03T08:52:32.904Z,-1.93
2022-12-03T08:55:04.102Z,-1.97
2022-12-03T08:57:35.903Z,-1.98
2022-12-03T09:00:16.553Z,-2.01
2022-12-03T09:02:48.816Z,-1.93
2022-12-03T09:05:20.661Z,-1.92
2022-12-03T09:07:49.582Z,-1.88
2022-12-03T09:10:18.356Z,-1.83
2022-12-03T09:12:48.703Z,-1.77
2022-12-03T09:15:17.409Z,-1.77
2022-12-03T09:17:46.021Z,-1.72
2022-12-03T09:20:15.249Z,-1.76
2022-12-03T09:22:43.777Z,-1.79
2022-12-03T09:25:17.763Z,-1.81
2022-12-03T09:27:46.312Z,-1.79
2022-12-03T09:30:17.009Z,-1.73
2022-12-03T09:32:45.524Z,-1.69
2022-12-03T09:35:14.023Z,-1.65
2022-12-03T09:37:42.636Z,-1.62
2022-12-03T09:40:12.554Z,-1.54
2022-12-03T09:42:41.268Z,-1.48
2022-12-03T09:45:13.187Z,-1.42
2022-12-03T09:47:45.963Z,-1.41
2022-12-03T09:50:16.247Z,-1.43
2022-12-03T09:52:45.492Z,-1.55
2022-12-03T09:55:19.487Z,-1.56
2022-12-03T09:57:48.052Z,-1.57
2022-12-03T10:00:19.000Z,-1.62
2022-12-03T10:02:50.590Z,-1.61
2022-12-03T10:05:21.352Z,-1.62
2022-12-03T10:07:51.612Z,-1.61
2022-12-03T10:10:25.222Z,-1.56
2022-12-03T10:12:54.934Z,-1.56
2022-12-03T10:15:24.658Z,-1.54
2022-12-03T10:17:56.069Z,-1.58
2022-12-03T10:20:26.585Z,-1.63
2022-12-03T10:22:55.870Z,-1.65
2022-12-03T10:25:24.694Z,-1.70
2022-12-03T10:27:59.408Z,-1.71
2022-12-03T10:30:29.467Z,-1.70
2022-12-03T10:33:02.759Z,-1.68
2022-12-03T10:35:39.074Z,-1.62
2022-12-03T10:38:09.471Z,-1.59
2022-12-03T10:40:39.661Z,-1.63
2022-12-03T10:43:16.242Z,-1.64
2022-12-03T10:45:45.901Z,-1.72
2022-12-03T10:48:17.875Z,-1.69
2022-12-03T10:50:51.922Z,-1.69
2022-12-03T10:53:22.348Z,-1.68
2022-12-03T10:55:58.762Z,-1.67
2022-12-03T10:58:31.552Z,-1.65
2022-12-03T11:01:03.459Z,-1.65
2022-12-03T11:03:36.960Z,-1.63
2022-12-03T11:06:06.111Z,-1.57
2022-12-03T11:08:36.829Z,-1.53
2022-12-03T11:11:08.534Z,-1.53
2022-12-03T11:13:52.362Z,-1.53
2022-12-03T11:17:12.401Z,-1.56
2022-12-03T11:19:50.245Z,-1.45
2022-12-03T11:22:38.929Z,-1.27
2022-12-03T11:25:56.102Z,-1.21
2022-12-03T11:28:52.796Z,-1.25
2022-12-03T11:31:39.812Z,-1.27
2022-12-03T11:34:47.897Z,-1.23
2022-12-03T11:37:26.012Z,-1.26
2022-12-03T11:40:26.398Z,-1.27
2022-12-03T11:44:04.136Z,-1.32
2022-12-03T11:46:42.795Z,-1.34
2022-12-03T11:49:25.779Z,-1.30
2022-12-03T11:51:54.542Z,-1.26
2022-12-03T11:54:24.784Z,-1.24
2022-12-03T11:56:56.184Z,-1.27
2022-12-03T11:59:24.697Z,-1.32
2022-12-03T12:01:53.192Z,-1.29
2022-12-03T12:04:33.605Z,-1.27
2022-12-03T12:07:03.275Z,-1.28
2022-12-03T12:09:54.309Z,-1.27
2022-12-03T12:12:30.645Z,-1.28
2022-12-03T12:15:00.216Z,-1.34
2022-12-03T12:17:36.404Z,-1.38
2022-12-03T12:20:25.903Z,-1.37
2022-12-03T12:22:55.869Z,-1.33
2022-12-03T12:25:40.692Z,-1.36
2022-12-03T12:28:09.723Z,-1.37
2022-12-03T12:30:38.210Z,-1.37
2022-12-03T12:33:15.779Z,-1.33
2022-12-03T12:35:44.299Z,-1.23
2022-12-03T12:38:16.722Z,-1.22
2022-12-03T12:40:49.347Z,-1.18
2022-12-03T12:43:24.959Z,-1.17
2022-12-03T12:45:55.964Z,-1.18
2022-12-03T12:48:27.598Z,-1.22
2022-12-03T12:51:02.208Z,-1.22
2022-12-03T12:53:33.076Z,-1.15
2022-12-03T12:56:12.369Z,-1.15
2022-12-03T12:58:41.555Z,-1.18
2022-12-03T13:01:18.253Z,-1.16
2022-12-03T13:03:50.643Z,-1.21
2022-12-03T13:06:21.471Z,-1.18
2022-12-03T13:08:51.359Z,-1.19
2022-12-03T13:11:37.014Z,-1.15
2022-12-03T13:14:14.344Z,-1.17
2022-12-03T13:16:43.423Z,-1.19
2022-12-03T13:19:23.063Z,-1.26
2022-12-03T13:21:53.580Z,-1.25
2022-12-03T13:24:33.876Z,-1.23
2022-12-03T13:27:09.808Z,-1.21
2022-12-03T13:29:38.471Z,-1.18
2022-12-03T13:32:13.225Z,-1.14
2022-12-03T13:34:42.742Z,-1.17
2022-12-03T13:37:15.357Z,-1.17
2022-12-03T13:39:47.897Z,-1.21
2022-12-03T13:42:42.302Z,-1.23
2022-12-03T13:45:32.925Z,-1.26
2022-12-03T13:48:04.027Z,-1.31
2022-12-03T13:50:37.193Z,-1.31
2022-12-03T13:53:21.163Z,-1.34
2022-12-03T13:55:51.330Z,-1.32
2022-12-03T13:58:21.346Z,-1.29
2022-12-03T14:00:49.982Z,-1.25
2022-12-03T14:03:18.739Z,-1.25
2022-12-03T14:05:47.283Z,-1.25
2022-12-03T14:08:16.199Z,-1.28
2022-12-03T14:10:44.829Z,-1.26
2022-12-03T14:13:13.419Z,-1.23
2022-12-03T14:15:43.412Z,-1.27
2022-12-03T14:18:11.904Z,-1.28
2022-12-03T14:20:40.466Z,-1.25
2022-12-03T14:23:09.042Z,-1.25
2022-12-03T14:25:37.588Z,-1.23
2022-12-03T14:28:08.678Z,-1.22
2022-12-03T14:30:37.521Z,-1.19
2022-12-03T14:33:07.756Z,-1.19
2022-12-03T14:35:36.326Z,-1.20
2022-12-03T14:38:04.885Z,-1.20
2022-12-03T14:40:33.470Z,-1.22
2022-12-03T14:43:03.327Z,-1.22
2022-12-03T14:45:32.060Z,-1.14
2022-12-03T14:48:00.712Z,-1.12
2022-12-03T14:50:30.607Z,-1.18
2022-12-03T14:52:59.156Z,-1.17
2022-12-03T14:55:27.812Z,-1.16
2022-12-03T14:57:56.487Z,-1.13
2022-12-03T15:00:25.315Z,-1.13
2022-12-03T15:02:53.981Z,-1.12
2022-12-03T15:05:28.323Z,-1.12
2022-12-03T15:07:58.815Z,-1.15
2022-12-03T15:10:27.448Z,-1.17
2022-12-03T15:12:56.096Z,-1.24
2022-12-03T15:15:24.724Z,-1.22
2022-12-03T15:17:53.275Z,-1.22
2022-12-03T15:20:21.796Z,-1.24
2022-12-03T15:22:50.489Z,-1.24
2022-12-03T15:25:24.579Z,-1.21
2022-12-03T15:27:53.099Z,-1.18
2022-12-03T15:30:21.811Z,-1.17
2022-12-03T15:32:50.557Z,-1.17
2022-12-03T15:35:19.232Z,-1.16
2022-12-03T15:37:47.735Z,-1.23
2022-12-03T15:40:16.483Z,-1.28
2022-12-03T15:42:46.427Z,-1.21
2022-12-03T15:45:15.578Z,-1.21
2022-12-03T15:47:44.551Z,-1.17
2022-12-03T15:50:13.559Z,-1.17
2022-12-03T15:52:42.104Z,-1.19
2022-12-03T15:55:11.249Z,-1.19
2022-12-03T15:57:39.812Z,-1.15
2022-12-03T16:00:12.478Z,-1.11
2022-12-03T16:02:41.476Z,-1.10
2022-12-03T16:05:12.696Z,-1.04
2022-12-03T16:07:41.559Z,-1.07
2022-12-03T16:10:11.981Z,-1.07
2022-12-03T16:12:40.489Z,-1.07
2022-12-03T16:15:11.123Z,-1.15
2022-12-03T16:17:39.636Z,-1.19
2022-12-03T16:20:09.326Z,-1.21
2022-12-03T16:22:37.850Z,-1.17
2022-12-03T16:25:07.697Z,-1.18
2022-12-03T16:27:38.004Z,-1.09
2022-12-03T16:30:08.852Z,-1.09
2022-12-03T16:32:39.399Z,-1.07
2022-12-03T16:35:08.328Z,-1.06
2022-12-03T16:37:36.905Z,-1.05
2022-12-03T16:40:06.186Z,-1.04
2022-12-03T16:42:34.691Z,-1.02
2022-12-03T16:45:20.464Z,-0.95
2022-12-03T16:47:51.056Z,-0.97
2022-12-03T16:50:27.556Z,-0.97
2022-12-03T16:52:58.227Z,-0.94
2022-12-03T16:55:26.763Z,-0.92
2022-12-03T16:57:55.669Z,-0.91
2022-12-03T17:00:25.901Z,-0.92
2022-12-03T17:02:55.984Z,-0.90
2022-12-03T17:05:24.589Z,-0.90
2022-12-03T17:07:53.252Z,-0.96
2022-12-03T17:10:21.913Z,-0.94
2022-12-03T17:15:39.234Z,-1.00
2022-12-03T17:18:10.227Z,-0.99
2022-12-03T17:20:39.087Z,-1.01
2022-12-03T17:23:07.663Z,-1.02
2022-12-03T17:25:36.455Z,-1.02
2022-12-03T17:28:04.991Z,-1.08
2022-12-03T17:30:33.510Z,-1.02
2022-12-03T17:33:02.143Z,-1.01
2022-12-03T17:35:32.056Z,-1.00
2022-12-03T17:38:02.540Z,-0.99
2022-12-03T17:40:31.196Z,-0.95
2022-12-03T17:42:59.670Z,-0.95
2022-12-03T17:45:28.205Z,-0.99
2022-12-03T17:47:56.748Z,-0.99
2022-12-03T17:50:25.223Z,-0.98
2022-12-03T17:52:55.191Z,-0.98
2022-12-03T17:55:33.579Z,-0.95
2022-12-03T17:58:06.151Z,-0.92
2022-12-03T18:00:35.126Z,-0.98
2022-12-03T18:03:03.816Z,-1.03
2022-12-03T18:05:32.356Z,-1.04
2022-12-03T18:08:02.442Z,-1.02
2022-12-03T18:10:31.042Z,-1.02
2022-12-03T18:13:01.975Z,-0.98
2022-12-03T18:15:31.282Z,-0.99
2022-12-03T18:17:59.917Z,-0.94
2022-12-03T18:20:28.653Z,-0.95
2022-12-03T18:22:58.811Z,-0.98
2022-12-03T18:25:29.031Z,-0.99
2022-12-03T18:27:57.846Z,-0.99
2022-12-03T18:30:26.538Z,-1.00
2022-12-03T18:32:55.109Z,-1.01
2022-12-03T18:35:23.809Z,-0.97
2022-12-03T18:37:52.836Z,-0.92
2022-12-03T18:40:24.630Z,-0.90
2022-12-03T18:42:54.726Z,-0.90
2022-12-03T18:45:23.267Z,-0.91
2022-12-03T18:47:51.816Z,-0.91
2022-12-03T18:50:20.435Z,-0.88
2022-12-03T18:52:48.925Z,-0.89
2022-12-03T18:55:19.719Z,-0.85
2022-12-03T18:57:48.260Z,-0.84
2022-12-03T19:00:18.905Z,-0.86
2022-12-03T19:03:03.121Z,-0.85
2022-12-03T19:05:32.779Z,-0.84
2022-12-03T19:08:01.601Z,-0.82
2022-12-03T19:10:30.253Z,-0.83
2022-12-03T19:12:58.800Z,-0.85
2022-12-03T19:15:28.781Z,-0.89
2022-12-03T19:17:57.344Z,-0.91
2022-12-03T19:20:25.911Z,-0.92
2022-12-03T19:22:54.420Z,-0.87
2022-12-03T19:25:23.046Z,-0.86
2022-12-03T19:27:55.065Z,-0.88
2022-12-03T19:30:23.765Z,-0.90
2022-12-03T19:32:53.726Z,-0.87
2022-12-03T19:35:22.564Z,-0.85
2022-12-03T19:37:51.383Z,-0.86
2022-12-03T19:40:20.063Z,-0.88
2022-12-03T19:42:48.623Z,-0.87
2022-12-03T19:45:17.337Z,-0.87
2022-12-03T19:47:45.826Z,-0.88
2022-12-03T19:50:22.713Z,-0.84
2022-12-03T19:52:51.968Z,-0.80
2022-12-03T19:55:20.714Z,-0.77
2022-12-03T19:57:49.669Z,-0.78
2022-12-03T20:00:18.635Z,-0.79
2022-12-03T20:02:50.134Z,-0.78
2022-12-03T20:05:20.206Z,-0.79
2022-12-03T20:07:48.809Z,-0.78
2022-12-03T20:10:17.660Z,-0.78
2022-12-03T20:12:46.500Z,-0.77
2022-12-03T20:15:15.416Z,-0.77
2022-12-03T20:17:44.151Z,-0.76
2022-12-03T20:20:13.363Z,-0.75
2022-12-03T20:22:43.548Z,-0.71
2022-12-03T20:25:12.255Z,-0.75
2022-12-03T20:27:40.826Z,-0.73
2022-12-03T20:30:10.357Z,-0.73
2022-12-03T20:32:43.725Z,-0.73
2022-12-03T20:35:14.007Z,-0.72
2022-12-03T20:37:43.938Z,-0.74
2022-12-03T20:40:13.033Z,-0.76
2022-12-03T20:42:41.531Z,-0.82
2022-12-03T20:45:11.203Z,-0.77
2022-12-03T20:47:39.754Z,-0.76
2022-12-03T20:50:09.172Z,-0.75
2022-12-03T20:52:37.880Z,-0.73
2022-12-03T20:55:08.498Z,-0.73
2022-12-03T20:57:37.450Z,-0.72
2022-12-03T21:00:07.256Z,-0.70
2022-12-03T21:02:35.824Z,-0.73
2022-12-03T21:05:04.620Z,-0.78
2022-12-03T21:07:33.351Z,-0.73
2022-12-03T21:10:01.961Z,-0.71
2022-12-03T21:12:31.891Z,-0.71
2022-12-03T21:15:00.448Z,-0.71
2022-12-03T21:17:28.995Z,-0.72
2022-12-03T21:19:57.739Z,-0.67
2022-12-03T21:22:26.396Z,-0.65
2022-12-03T21:24:55.058Z,-0.64
2022-12-03T21:27:23.596Z,-0.71
2022-12-03T21:29:54.233Z,-0.74
2022-12-03T21:32:23.034Z,-0.71
2022-12-03T21:34:51.594Z,-0.68
2022-12-03T21:37:20.066Z,-0.66
2022-12-03T21:39:48.606Z,-0.69
2022-12-03T21:42:34.749Z,-0.68
2022-12-03T21:45:08.280Z,-0.70
2022-12-03T21:47:37.652Z,-0.72
2022-12-03T21:50:08.255Z,-0.75
2022-12-03T21:52:36.982Z,-0.77
2022-12-03T21:55:06.360Z,-0.81
2022-12-03T21:57:36.707Z,-0.81
2022-12-03T22:00:08.855Z,-0.81
2022-12-03T22:02:39.577Z,-0.78
2022-12-03T22:05:09.138Z,-0.77
2022-12-03T22:07:38.532Z,-0.75
2022-12-03T22:10:11.995Z,-0.73
2022-12-03T22:12:42.110Z,-0.75
2022-12-03T22:15:18.382Z,-0.73
2022-12-03T22:17:47.865Z,-0.72
2022-12-03T22:20:16.867Z,-0.71
2022-12-03T22:22:45.376Z,-0.70
2022-12-03T22:25:13.882Z,-0.65
2022-12-03T22:27:42.359Z,-0.63
2022-12-03T22:30:12.888Z,-0.66
2022-12-03T22:32:41.482Z,-0.68
2022-12-03T22:35:10.409Z,-0.72
2022-12-03T22:37:38.915Z,-0.70
2022-12-03T22:40:08.425Z,-0.68
2022-12-03T22:42:37.002Z,-0.70
2022-12-03T22:45:06.371Z,-0.70
2022-12-03T22:47:36.264Z,-0.67
2022-12-03T22:50:05.007Z,-0.65
2022-12-03T22:52:33.627Z,-0.60
2022-12-03T22:55:02.112Z,-0.59
2022-12-03T22:57:30.588Z,-0.61
2022-12-03T22:59:59.142Z,-0.67
2022-12-03T23:02:27.891Z,-0.67
2022-12-03T23:04:57.985Z,-0.64
2022-12-03T23:07:26.532Z,-0.67
2022-12-03T23:09:55.565Z,-0.64
2022-12-03T23:12:24.219Z,-0.62
2022-12-03T23:14:54.210Z,-0.57
2022-12-03T23:17:22.742Z,-0.58
2022-12-03T23:19:51.577Z,-0.61
2022-12-03T23:22:21.532Z,-0.60
2022-12-03T23:24:50.042Z,-0.58
2022-12-03T23:27:18.576Z,-0.59
2022-12-03T23:29:47.184Z,-0.63
2022-12-03T23:32:15.692Z,-0.64
2022-12-03T23:34:44.446Z,-0.64
2022-12-03T23:37:12.991Z,-0.63
2022-12-03T23:39:42.914Z,-0.62
2022-12-03T23:42:11.498Z,-0.63
2022-12-03T23:44:40.040Z,-0.62
2022-12-03T23:47:08.625Z,-0.65
2022-12-03T23:49:37.402Z,-0.64
2022-12-03T23:52:05.932Z,-0.62
2022-12-03T23:54:34.468Z,-0.62
2022-12-03T23:57:04.703Z,-0.60
2022-12-03T23:59:33.368Z,-0.61
